Ms Diego + 3 Barge — D00000 — position and weather

sailwx.info

Track history (hours):
 
Tides and Currents Weather Stations Pressure Air Temp Water Temp Dewpoint Dewpoint Depression Visibility Wind Speed Wind Dir Waves Ship Positions

Ms Diego + 3 Barge

Last reported at 2017-Nov-14 16:56 UTC. Time now 2017-Nov-19 08:59 UTC.
Position N 44°18' E 028°03'.

; draft 2.1 m.

Type: Cargo ship. MMSI: 207072266.

Date/timePositionNaut miles runAvg speedWind from/ knotsBaromVisibWave heightAir tempDewpointWater temp
2017-Nov-14 16:56N 44°18' E 028°03'1 1.5
2017-Nov-14 16:30N 44°18' E 028°03'3 6.8
2017-Nov-14 16:00N 44°16' E 028°07'4 7.2
2017-Nov-14 15:30N 44°16' E 028°12'4 7.3
2017-Nov-14 15:00N 44°15' E 028°18'3 6.8
2017-Nov-14 14:30N 44°14' E 028°22'3 7.0
2017-Nov-14 14:00N 44°11' E 028°24'4 6.9
2017-Nov-14 13:23N 44°07' E 028°27'3 6.7
2017-Nov-14 12:59N 44°06' E 028°30'3 7.3
2017-Nov-14 12:30N 44°06' E 028°35'2 3.2
2017-Nov-14 12:00N 44°06' E 028°37'0 0.8
2017-Nov-14 11:30N 44°06' E 028°38'1 2.3
2017-Nov-14 11:00N 44°07' E 028°39'0 0.0
2017-Nov-14 10:30N 44°07' E 028°39'0 0.4
2017-Nov-14 10:00N 44°07' E 028°39'0 0.0
2017-Nov-14 09:30N 44°07' E 028°39'0 0.0
2017-Nov-14 09:00N 44°07' E 028°39'0 0.0
2017-Nov-14 08:30N 44°07' E 028°39'0 0.0
2017-Nov-14 08:00N 44°07' E 028°39'0 0.0
2017-Nov-14 07:30N 44°07' E 028°39'0 0.0
2017-Nov-14 07:00N 44°07' E 028°39'0 0.0
2017-Nov-14 06:30N 44°07' E 028°39'0 0.0
2017-Nov-14 06:00N 44°07' E 028°39'0 0.0
2017-Nov-14 05:30N 44°07' E 028°39'0 0.0
2017-Nov-14 05:00N 44°07' E 028°39'0 0.0
2017-Nov-14 04:30N 44°07' E 028°39'0 0.0
2017-Nov-14 04:00N 44°07' E 028°39'0 0.0
2017-Nov-14 03:30N 44°07' E 028°39'0 0.0
2017-Nov-14 03:00N 44°07' E 028°39'0 0.0
2017-Nov-14 02:30N 44°07' E 028°39'0 0.0
2017-Nov-14 02:00N 44°07' E 028°39'0 0.0
2017-Nov-14 01:30N 44°07' E 028°39'0 0.0
2017-Nov-14 01:00N 44°07' E 028°39'0 0.0
2017-Nov-14 00:30N 44°07' E 028°39'0 0.0
2017-Nov-14 00:00N 44°07' E 028°39'0 0.0
2017-Nov-13 23:30N 44°07' E 028°39'0 0.0
2017-Nov-13 23:00N 44°07' E 028°39'0 0.0
2017-Nov-13 22:30N 44°07' E 028°39'0 0.0
2017-Nov-13 22:00N 44°07' E 028°39'0 0.0
2017-Nov-13 02:00N 44°07' E 028°39'0 0.0
2017-Nov-13 01:30N 44°07' E 028°39'0 0.0
2017-Nov-13 01:00N 44°07' E 028°39'0 0.0
2017-Nov-13 00:30N 44°07' E 028°39'0 0.0
2017-Nov-13 00:00N 44°07' E 028°39'0 0.0
2017-Nov-12 23:30N 44°07' E 028°39'0 0.0
2017-Nov-12 23:00N 44°07' E 028°39'0 0.0
2017-Nov-12 22:30N 44°07' E 028°39'0 0.0
2017-Nov-12 22:00N 44°07' E 028°39'0 0.0
2017-Nov-12 21:30N 44°07' E 028°39'0 0.0
2017-Nov-12 21:00N 44°07' E 028°39'0 0.0
2017-Nov-12 20:30N 44°07' E 028°39'0 0.0
2017-Nov-12 20:00N 44°07' E 028°39'0 0.0
2017-Nov-12 19:30N 44°07' E 028°39'0 0.0
2017-Nov-12 19:00N 44°07' E 028°39'0 0.0
2017-Nov-12 18:30N 44°07' E 028°39'0 0.0
2017-Nov-12 18:00N 44°07' E 028°39'0 0.0
2017-Nov-12 17:30N 44°07' E 028°39'0 0.0
2017-Nov-12 17:00N 44°07' E 028°39'0 0.0
2017-Nov-12 16:30N 44°07' E 028°39'0 0.0
2017-Nov-12 16:00N 44°07' E 028°39'0 0.0
2017-Nov-12 15:30N 44°07' E 028°39'0 0.5
2017-Nov-12 15:00N 44°07' E 028°39'2 4.5
2017-Nov-12 14:30N 44°09' E 028°40'1 1.8
2017-Nov-12 14:00N 44°10' E 028°39'0 0.0
2017-Nov-12 13:30N 44°10' E 028°39'0 0.0
2017-Nov-12 13:00N 44°10' E 028°39'0 0.0
2017-Nov-12 12:30N 44°10' E 028°39'0 0.0
2017-Nov-12 12:00N 44°10' E 028°39'0 0.0
2017-Nov-12 11:30N 44°10' E 028°39'0 0.0
2017-Nov-12 11:00N 44°10' E 028°39'0 0.0
2017-Nov-12 10:30N 44°10' E 028°39'0 0.0
2017-Nov-12 10:00N 44°10' E 028°39'0 0.0
2017-Nov-12 09:30N 44°10' E 028°39'0 0.0
2017-Nov-12 09:00N 44°10' E 028°39'0 0.0
2017-Nov-12 08:30N 44°10' E 028°39'0 0.0
2017-Nov-12 08:00N 44°10' E 028°39'0 0.0
2017-Nov-12 07:30N 44°10' E 028°39'0 0.0
2017-Nov-12 07:00N 44°10' E 028°39'0 0.0
2017-Nov-12 06:30N 44°10' E 028°39'0 0.0
2017-Nov-12 06:00N 44°10' E 028°39'0 0.0
2017-Nov-12 05:30N 44°10' E 028°39'0 0.0
2017-Nov-12 05:00N 44°10' E 028°39'0 0.0
2017-Nov-12 04:30N 44°10' E 028°39'0 0.0
2017-Nov-12 04:00N 44°10' E 028°39'0 0.0
2017-Nov-12 03:30N 44°10' E 028°39'0 0.0
2017-Nov-12 03:00N 44°10' E 028°39'0 0.0
2017-Nov-12 02:30N 44°10' E 028°39'0 0.0
2017-Nov-12 02:00N 44°10' E 028°39'0 0.0
2017-Nov-12 01:30N 44°10' E 028°39'0 0.0
2017-Nov-12 01:00N 44°10' E 028°39'0 0.0
2017-Nov-12 00:30N 44°10' E 028°39'0 0.0
2017-Nov-12 00:00N 44°10' E 028°39'0 0.0
2017-Nov-11 23:30N 44°10' E 028°39'1 2.4
2017-Nov-11 23:00N 44°08' E 028°39'1 2.2
2017-Nov-11 22:30N 44°10' E 028°39'0 0.0
2017-Nov-11 22:00N 44°10' E 028°39'0 0.0
2017-Nov-11 21:30N 44°10' E 028°39'0 0.0
2017-Nov-11 21:00N 44°10' E 028°39'0 0.0
2017-Nov-11 20:30N 44°10' E 028°39'0 0.0
2017-Nov-11 20:00N 44°10' E 028°39'0 0.0
2017-Nov-11 19:30N 44°10' E 028°39'0 0.0
2017-Nov-11 19:00N 44°10' E 028°39'0 0.0
2017-Nov-11 18:30N 44°10' E 028°39'0 0.0
2017-Nov-11 18:00N 44°10' E 028°39'0 0.0
2017-Nov-11 17:30N 44°10' E 028°39'0 0.0
2017-Nov-11 17:00N 44°10' E 028°39'0 0.0
2017-Nov-11 16:30N 44°10' E 028°39'0 0.0
2017-Nov-11 16:00N 44°10' E 028°39'0 0.0
2017-Nov-11 15:30N 44°10' E 028°39'0 0.0
2017-Nov-11 15:00N 44°10' E 028°39'0 0.0
2017-Nov-11 14:30N 44°10' E 028°39'0 0.0
2017-Nov-11 14:00N 44°10' E 028°39'0 0.0
2017-Nov-11 13:30N 44°10' E 028°39'0 0.0
2017-Nov-11 13:00N 44°10' E 028°39'0 0.0
2017-Nov-11 12:30N 44°10' E 028°39'0 0.0
2017-Nov-11 12:00N 44°10' E 028°39'0 0.0
2017-Nov-11 11:30N 44°10' E 028°39'0 0.0
2017-Nov-11 11:00N 44°10' E 028°39'0 0.0
2017-Nov-11 10:30N 44°10' E 028°39'0 0.0
2017-Nov-11 10:00N 44°10' E 028°39'0 0.0
2017-Nov-11 09:30N 44°10' E 028°39'0 0.0
2017-Nov-11 09:00N 44°10' E 028°39'0 0.0
2017-Nov-11 08:30N 44°10' E 028°39'0 1.0
2017-Nov-11 08:00N 44°09' E 028°40'2 4.0
2017-Nov-11 07:30N 44°07' E 028°39'1 1.1
2017-Nov-11 07:00N 44°07' E 028°39'0 0.0
2017-Nov-11 06:30N 44°07' E 028°39'0 0.0
2017-Nov-11 06:00N 44°07' E 028°39'0 0.0
2017-Nov-11 05:30N 44°07' E 028°39'0 0.0
2017-Nov-11 05:00N 44°07' E 028°39'0 0.0
2017-Nov-11 04:30N 44°07' E 028°39'0 0.0
2017-Nov-11 04:00N 44°07' E 028°39'0 0.0
2017-Nov-11 03:30N 44°07' E 028°39'0 0.0
2017-Nov-11 03:00N 44°07' E 028°39'0 0.0
2017-Nov-11 02:30N 44°07' E 028°39'0 0.0
2017-Nov-11 02:00N 44°07' E 028°39'0 0.0
2017-Nov-11 01:30N 44°07' E 028°39'0 0.0
2017-Nov-11 01:00N 44°07' E 028°39'0 0.0
2017-Nov-11 00:30N 44°07' E 028°39'0 0.0
2017-Nov-11 00:00N 44°07' E 028°39'0 0.0
2017-Nov-10 23:30N 44°07' E 028°39'0 0.0
2017-Nov-10 23:00N 44°07' E 028°39'0 0.0
2017-Nov-10 22:30N 44°07' E 028°39'0 0.0
2017-Nov-10 22:00N 44°07' E 028°39'0 0.0
2017-Nov-10 21:30N 44°07' E 028°39'0 0.0
2017-Nov-10 21:00N 44°07' E 028°39'0 0.0
2017-Nov-10 20:30N 44°07' E 028°39'0 0.0
2017-Nov-10 20:00N 44°07' E 028°39'0 0.0
2017-Nov-10 19:30N 44°07' E 028°39'0 0.0
2017-Nov-10 19:00N 44°07' E 028°39'0 0.0
2017-Nov-10 18:30N 44°07' E 028°39'0 0.0
2017-Nov-10 18:00N 44°07' E 028°39'0 0.0
2017-Nov-10 17:30N 44°07' E 028°39'0 0.0
2017-Nov-10 17:00N 44°07' E 028°39'0 0.0
2017-Nov-10 16:30N 44°07' E 028°39'0 0.0
2017-Nov-10 16:00N 44°07' E 028°39'0 0.0
2017-Nov-10 15:30N 44°07' E 028°39'0 0.0
2017-Nov-10 15:00N 44°07' E 028°39'0 0.0
2017-Nov-10 14:30N 44°07' E 028°39'0 0.0
2017-Nov-10 14:00N 44°07' E 028°39'0 0.0
2017-Nov-10 13:30N 44°07' E 028°39'0 0.0
2017-Nov-10 13:00N 44°07' E 028°39'0 0.5
2017-Nov-10 12:30N 44°07' E 028°39'1 1.1
2017-Nov-10 12:00N 44°06' E 028°39'1 2.4
2017-Nov-10 11:30N 44°06' E 028°37'0 0.0
2017-Nov-10 11:00N 44°06' E 028°37'1 1.1
2017-Nov-10 10:30N 44°06' E 028°36'0 0.2
2017-Nov-10 10:00N 44°06' E 028°36'0 0.0
2017-Nov-10 09:30N 44°06' E 028°36'1 1.1
2017-Nov-10 09:00N 44°06' E 028°36'2 4.4
2017-Nov-10 08:30N 44°06' E 028°32'3 4.4
2017-Nov-10 07:49N 44°06' E 028°28'1 4.6
2017-Nov-10 07:30N 44°07' E 028°27'2 4.5
2017-Nov-10 07:00N 44°09' E 028°26'2 4.6
2017-Nov-10 06:30N 44°11' E 028°24'2 4.4
2017-Nov-10 06:00N 44°13' E 028°23'2 4.4
2017-Nov-10 05:30N 44°15' E 028°21'2 3.7
2017-Nov-10 05:00N 44°15' E 028°18'0 0.0
2017-Nov-10 04:30N 44°15' E 028°18'0 0.0
2017-Nov-10 04:00N 44°15' E 028°18'0 0.0
2017-Nov-10 03:30N 44°15' E 028°18'0 0.0
2017-Nov-10 03:00N 44°15' E 028°18'0 0.0
2017-Nov-10 02:30N 44°15' E 028°18'0 0.0
2017-Nov-10 02:00N 44°15' E 028°18'0 0.0
2017-Nov-10 01:30N 44°15' E 028°18'0 0.0
2017-Nov-10 01:00N 44°15' E 028°18'0 0.0
2017-Nov-10 00:30N 44°15' E 028°18'0 0.0
2017-Nov-10 00:00N 44°15' E 028°18'0 0.0
2017-Nov-09 23:30N 44°15' E 028°18'0 0.0
2017-Nov-09 23:00N 44°15' E 028°18'0 0.0
2017-Nov-09 22:30N 44°15' E 028°18'0 0.0
2017-Nov-09 22:00N 44°15' E 028°18'0 0.0
2017-Nov-09 21:30N 44°15' E 028°18'0 0.0
2017-Nov-09 21:00N 44°15' E 028°18'0 0.0
2017-Nov-09 20:30N 44°15' E 028°18'0 0.0
2017-Nov-09 20:00N 44°15' E 028°18'0 0.0
2017-Nov-09 19:30N 44°15' E 028°18'0 0.0
2017-Nov-09 19:00N 44°15' E 028°18'0 0.0
2017-Nov-09 18:30N 44°15' E 028°18'0 0.0
2017-Nov-09 18:00N 44°15' E 028°18'0 0.0
2017-Nov-09 17:30N 44°15' E 028°18'0 0.1
2017-Nov-09 17:00N 44°15' E 028°18'1 2.9
2017-Nov-09 16:30N 44°15' E 028°16'2 4.4
2017-Nov-09 16:00N 44°15' E 028°13'2 4.3
2017-Nov-09 15:30N 44°16' E 028°10'2 4.4
2017-Nov-09 15:00N 44°16' E 028°07'2 4.4
2017-Nov-09 14:30N 44°17' E 028°04'  
2017-Nov-06 21:59N 43°51' E 023°24'3 5.7
2017-Nov-06 21:29N 43°51' E 023°20'3 5.7
2017-Nov-06 21:00N 43°51' E 023°16'3 5.3
2017-Nov-06 20:30N 43°50' E 023°12'17 0.6
2017-Nov-05 14:40N 43°59' E 022°53'0 2.3
2017-Nov-05 14:30N 43°58' E 022°53'0 0.8
2017-Nov-05 14:00N 43°59' E 022°53'3 6.6
2017-Nov-05 13:30N 44°00' E 022°57'3 6.5
2017-Nov-05 13:00N 44°01' E 023°01'3 6.8
2017-Nov-05 12:30N 44°04' E 023°03'3 6.6
2017-Nov-05 12:00N 44°06' E 022°59'3 6.9
2017-Nov-05 11:30N 44°07' E 022°54'3 6.9
2017-Nov-05 11:00N 44°09' E 022°50'3 6.7
2017-Nov-05 10:30N 44°11' E 022°46'3 6.7
2017-Nov-05 10:00N 44°12' E 022°42'3 5.6
2017-Nov-05 09:31N 44°15' E 022°41'3 5.9
2017-Nov-05 09:01N 44°17' E 022°39'1 2.3
2017-Nov-05 08:31N 44°18' E 022°37'0 0.0
2017-Nov-05 08:01N 44°18' E 022°37'0 0.0
2017-Nov-05 07:31N 44°18' E 022°37'0 0.0
2017-Nov-05 07:00N 44°18' E 022°37'0 0.1
2017-Nov-05 06:30N 44°18' E 022°37'0 0.0
2017-Nov-05 06:01N 44°18' E 022°37'0 0.0
2017-Nov-05 05:31N 44°18' E 022°37'0 0.0
2017-Nov-05 05:01N 44°18' E 022°37'0 0.0
2017-Nov-05 04:31N 44°18' E 022°37'0 0.0
2017-Nov-05 04:01N 44°18' E 022°37'0 0.0
2017-Nov-05 03:31N 44°18' E 022°37'0 0.0
2017-Nov-05 03:01N 44°18' E 022°37'0 0.0
2017-Nov-05 02:31N 44°18' E 022°37'0 0.0
2017-Nov-05 02:01N 44°18' E 022°37'0 0.0
2017-Nov-05 01:31N 44°18' E 022°37'0 0.0
2017-Nov-05 01:01N 44°18' E 022°37'0 0.0
2017-Nov-05 00:31N 44°18' E 022°37'0 0.0
2017-Nov-05 00:01N 44°18' E 022°37'0 0.0
2017-Nov-04 23:31N 44°18' E 022°37'0 0.0
2017-Nov-04 23:01N 44°18' E 022°37'0 0.0
2017-Nov-04 22:31N 44°18' E 022°37'0 0.0
2017-Nov-04 22:01N 44°18' E 022°37'0 0.0
2017-Nov-04 21:31N 44°18' E 022°37'0 0.8
2017-Nov-04 21:00N 44°17' E 022°37'0 0.0
2017-Nov-04 20:31N 44°17' E 022°37'0 0.0
2017-Nov-04 20:01N 44°17' E 022°37'0 0.0
2017-Nov-04 19:31N 44°17' E 022°37'0 0.0
2017-Nov-04 19:01N 44°17' E 022°37'0 0.0
2017-Nov-04 18:31N 44°17' E 022°37'0 0.0
2017-Nov-04 18:01N 44°17' E 022°37'0 0.0
2017-Nov-04 17:31N 44°17' E 022°37'1 1.0
2017-Nov-04 17:01N 44°17' E 022°38'  
Track history (hours):
 
Tides and Currents Weather Stations Pressure Air Temp Water Temp Dewpoint Dewpoint Depression Visibility Wind Speed Wind Dir Waves Ship Positions

Ms Diego + 3 Barge

Last reported at 2017-Nov-14 16:56 UTC. Time now 2017-Nov-19 08:59 UTC.
Position N 44°18' E 028°03'.

; draft 2.1 m.

Type: Cargo ship. MMSI: 207072266.

Date/timePositionNaut miles runAvg speedWind from/ knotsBaromVisibWave heightAir tempDewpointWater temp
2017-Nov-14 16:56N 44°18' E 028°03'1 1.5
2017-Nov-14 16:30N 44°18' E 028°03'3 6.8
2017-Nov-14 16:00N 44°16' E 028°07'4 7.2
2017-Nov-14 15:30N 44°16' E 028°12'4 7.3
2017-Nov-14 15:00N 44°15' E 028°18'3 6.8
2017-Nov-14 14:30N 44°14' E 028°22'3 7.0
2017-Nov-14 14:00N 44°11' E 028°24'4 6.9
2017-Nov-14 13:23N 44°07' E 028°27'3 6.7
2017-Nov-14 12:59N 44°06' E 028°30'3 7.3
2017-Nov-14 12:30N 44°06' E 028°35'2 3.2
2017-Nov-14 12:00N 44°06' E 028°37'0 0.8
2017-Nov-14 11:30N 44°06' E 028°38'1 2.3
2017-Nov-14 11:00N 44°07' E 028°39'0 0.0
2017-Nov-14 10:30N 44°07' E 028°39'0 0.4
2017-Nov-14 10:00N 44°07' E 028°39'0 0.0
2017-Nov-14 09:30N 44°07' E 028°39'0 0.0
2017-Nov-14 09:00N 44°07' E 028°39'0 0.0
2017-Nov-14 08:30N 44°07' E 028°39'0 0.0
2017-Nov-14 08:00N 44°07' E 028°39'0 0.0
2017-Nov-14 07:30N 44°07' E 028°39'0 0.0
2017-Nov-14 07:00N 44°07' E 028°39'0 0.0
2017-Nov-14 06:30N 44°07' E 028°39'0 0.0
2017-Nov-14 06:00N 44°07' E 028°39'0 0.0
2017-Nov-14 05:30N 44°07' E 028°39'0 0.0
2017-Nov-14 05:00N 44°07' E 028°39'0 0.0
2017-Nov-14 04:30N 44°07' E 028°39'0 0.0
2017-Nov-14 04:00N 44°07' E 028°39'0 0.0
2017-Nov-14 03:30N 44°07' E 028°39'0 0.0
2017-Nov-14 03:00N 44°07' E 028°39'0 0.0
2017-Nov-14 02:30N 44°07' E 028°39'0 0.0
2017-Nov-14 02:00N 44°07' E 028°39'0 0.0
2017-Nov-14 01:30N 44°07' E 028°39'0 0.0
2017-Nov-14 01:00N 44°07' E 028°39'0 0.0
2017-Nov-14 00:30N 44°07' E 028°39'0 0.0
2017-Nov-14 00:00N 44°07' E 028°39'0 0.0
2017-Nov-13 23:30N 44°07' E 028°39'0 0.0
2017-Nov-13 23:00N 44°07' E 028°39'0 0.0
2017-Nov-13 22:30N 44°07' E 028°39'0 0.0
2017-Nov-13 22:00N 44°07' E 028°39'0 0.0
2017-Nov-13 02:00N 44°07' E 028°39'0 0.0
2017-Nov-13 01:30N 44°07' E 028°39'0 0.0
2017-Nov-13 01:00N 44°07' E 028°39'0 0.0
2017-Nov-13 00:30N 44°07' E 028°39'0 0.0
2017-Nov-13 00:00N 44°07' E 028°39'0 0.0
2017-Nov-12 23:30N 44°07' E 028°39'0 0.0
2017-Nov-12 23:00N 44°07' E 028°39'0 0.0
2017-Nov-12 22:30N 44°07' E 028°39'0 0.0
2017-Nov-12 22:00N 44°07' E 028°39'0 0.0
2017-Nov-12 21:30N 44°07' E 028°39'0 0.0
2017-Nov-12 21:00N 44°07' E 028°39'0 0.0
2017-Nov-12 20:30N 44°07' E 028°39'0 0.0
2017-Nov-12 20:00N 44°07' E 028°39'0 0.0
2017-Nov-12 19:30N 44°07' E 028°39'0 0.0
2017-Nov-12 19:00N 44°07' E 028°39'0 0.0
2017-Nov-12 18:30N 44°07' E 028°39'0 0.0
2017-Nov-12 18:00N 44°07' E 028°39'0 0.0
2017-Nov-12 17:30N 44°07' E 028°39'0 0.0
2017-Nov-12 17:00N 44°07' E 028°39'0 0.0
2017-Nov-12 16:30N 44°07' E 028°39'0 0.0
2017-Nov-12 16:00N 44°07' E 028°39'0 0.0
2017-Nov-12 15:30N 44°07' E 028°39'0 0.5
2017-Nov-12 15:00N 44°07' E 028°39'2 4.5
2017-Nov-12 14:30N 44°09' E 028°40'1 1.8
2017-Nov-12 14:00N 44°10' E 028°39'0 0.0
2017-Nov-12 13:30N 44°10' E 028°39'0 0.0
2017-Nov-12 13:00N 44°10' E 028°39'0 0.0
2017-Nov-12 12:30N 44°10' E 028°39'0 0.0
2017-Nov-12 12:00N 44°10' E 028°39'0 0.0
2017-Nov-12 11:30N 44°10' E 028°39'0 0.0
2017-Nov-12 11:00N 44°10' E 028°39'0 0.0
2017-Nov-12 10:30N 44°10' E 028°39'0 0.0
2017-Nov-12 10:00N 44°10' E 028°39'0 0.0
2017-Nov-12 09:30N 44°10' E 028°39'0 0.0
2017-Nov-12 09:00N 44°10' E 028°39'0 0.0
2017-Nov-12 08:30N 44°10' E 028°39'0 0.0
2017-Nov-12 08:00N 44°10' E 028°39'0 0.0
2017-Nov-12 07:30N 44°10' E 028°39'0 0.0
2017-Nov-12 07:00N 44°10' E 028°39'0 0.0
2017-Nov-12 06:30N 44°10' E 028°39'0 0.0
2017-Nov-12 06:00N 44°10' E 028°39'0 0.0
2017-Nov-12 05:30N 44°10' E 028°39'0 0.0
2017-Nov-12 05:00N 44°10' E 028°39'0 0.0
2017-Nov-12 04:30N 44°10' E 028°39'0 0.0
2017-Nov-12 04:00N 44°10' E 028°39'0 0.0
2017-Nov-12 03:30N 44°10' E 028°39'0 0.0
2017-Nov-12 03:00N 44°10' E 028°39'0 0.0
2017-Nov-12 02:30N 44°10' E 028°39'0 0.0
2017-Nov-12 02:00N 44°10' E 028°39'0 0.0
2017-Nov-12 01:30N 44°10' E 028°39'0 0.0
2017-Nov-12 01:00N 44°10' E 028°39'0 0.0
2017-Nov-12 00:30N 44°10' E 028°39'0 0.0
2017-Nov-12 00:00N 44°10' E 028°39'0 0.0
2017-Nov-11 23:30N 44°10' E 028°39'1 2.4
2017-Nov-11 23:00N 44°08' E 028°39'1 2.2
2017-Nov-11 22:30N 44°10' E 028°39'0 0.0
2017-Nov-11 22:00N 44°10' E 028°39'0 0.0
2017-Nov-11 21:30N 44°10' E 028°39'0 0.0
2017-Nov-11 21:00N 44°10' E 028°39'0 0.0
2017-Nov-11 20:30N 44°10' E 028°39'0 0.0
2017-Nov-11 20:00N 44°10' E 028°39'0 0.0
2017-Nov-11 19:30N 44°10' E 028°39'0 0.0
2017-Nov-11 19:00N 44°10' E 028°39'0 0.0
2017-Nov-11 18:30N 44°10' E 028°39'0 0.0
2017-Nov-11 18:00N 44°10' E 028°39'0 0.0
2017-Nov-11 17:30N 44°10' E 028°39'0 0.0
2017-Nov-11 17:00N 44°10' E 028°39'0 0.0
2017-Nov-11 16:30N 44°10' E 028°39'0 0.0
2017-Nov-11 16:00N 44°10' E 028°39'0 0.0
2017-Nov-11 15:30N 44°10' E 028°39'0 0.0
2017-Nov-11 15:00N 44°10' E 028°39'0 0.0
2017-Nov-11 14:30N 44°10' E 028°39'0 0.0
2017-Nov-11 14:00N 44°10' E 028°39'0 0.0
2017-Nov-11 13:30N 44°10' E 028°39'0 0.0
2017-Nov-11 13:00N 44°10' E 028°39'0 0.0
2017-Nov-11 12:30N 44°10' E 028°39'0 0.0
2017-Nov-11 12:00N 44°10' E 028°39'0 0.0
2017-Nov-11 11:30N 44°10' E 028°39'0 0.0
2017-Nov-11 11:00N 44°10' E 028°39'0 0.0
2017-Nov-11 10:30N 44°10' E 028°39'0 0.0
2017-Nov-11 10:00N 44°10' E 028°39'0 0.0
2017-Nov-11 09:30N 44°10' E 028°39'0 0.0
2017-Nov-11 09:00N 44°10' E 028°39'0 0.0
2017-Nov-11 08:30N 44°10' E 028°39'0 1.0
2017-Nov-11 08:00N 44°09' E 028°40'2 4.0
2017-Nov-11 07:30N 44°07' E 028°39'1 1.1
2017-Nov-11 07:00N 44°07' E 028°39'0 0.0
2017-Nov-11 06:30N 44°07' E 028°39'0 0.0
2017-Nov-11 06:00N 44°07' E 028°39'0 0.0
2017-Nov-11 05:30N 44°07' E 028°39'0 0.0
2017-Nov-11 05:00N 44°07' E 028°39'0 0.0
2017-Nov-11 04:30N 44°07' E 028°39'0 0.0
2017-Nov-11 04:00N 44°07' E 028°39'0 0.0
2017-Nov-11 03:30N 44°07' E 028°39'0 0.0
2017-Nov-11 03:00N 44°07' E 028°39'0 0.0
2017-Nov-11 02:30N 44°07' E 028°39'0 0.0
2017-Nov-11 02:00N 44°07' E 028°39'0 0.0
2017-Nov-11 01:30N 44°07' E 028°39'0 0.0
2017-Nov-11 01:00N 44°07' E 028°39'0 0.0
2017-Nov-11 00:30N 44°07' E 028°39'0 0.0
2017-Nov-11 00:00N 44°07' E 028°39'0 0.0
2017-Nov-10 23:30N 44°07' E 028°39'0 0.0
2017-Nov-10 23:00N 44°07' E 028°39'0 0.0
2017-Nov-10 22:30N 44°07' E 028°39'0 0.0
2017-Nov-10 22:00N 44°07' E 028°39'0 0.0
2017-Nov-10 21:30N 44°07' E 028°39'0 0.0
2017-Nov-10 21:00N 44°07' E 028°39'0 0.0
2017-Nov-10 20:30N 44°07' E 028°39'0 0.0
2017-Nov-10 20:00N 44°07' E 028°39'0 0.0
2017-Nov-10 19:30N 44°07' E 028°39'0 0.0
2017-Nov-10 19:00N 44°07' E 028°39'0 0.0
2017-Nov-10 18:30N 44°07' E 028°39'0 0.0
2017-Nov-10 18:00N 44°07' E 028°39'0 0.0
2017-Nov-10 17:30N 44°07' E 028°39'0 0.0
2017-Nov-10 17:00N 44°07' E 028°39'0 0.0
2017-Nov-10 16:30N 44°07' E 028°39'0 0.0
2017-Nov-10 16:00N 44°07' E 028°39'0 0.0
2017-Nov-10 15:30N 44°07' E 028°39'0 0.0
2017-Nov-10 15:00N 44°07' E 028°39'0 0.0
2017-Nov-10 14:30N 44°07' E 028°39'0 0.0
2017-Nov-10 14:00N 44°07' E 028°39'0 0.0
2017-Nov-10 13:30N 44°07' E 028°39'0 0.0
2017-Nov-10 13:00N 44°07' E 028°39'0 0.5
2017-Nov-10 12:30N 44°07' E 028°39'1 1.1
2017-Nov-10 12:00N 44°06' E 028°39'1 2.4
2017-Nov-10 11:30N 44°06' E 028°37'0 0.0
2017-Nov-10 11:00N 44°06' E 028°37'1 1.1
2017-Nov-10 10:30N 44°06' E 028°36'0 0.2
2017-Nov-10 10:00N 44°06' E 028°36'0 0.0
2017-Nov-10 09:30N 44°06' E 028°36'1 1.1
2017-Nov-10 09:00N 44°06' E 028°36'2 4.4
2017-Nov-10 08:30N 44°06' E 028°32'3 4.4
2017-Nov-10 07:49N 44°06' E 028°28'1 4.6
2017-Nov-10 07:30N 44°07' E 028°27'2 4.5
2017-Nov-10 07:00N 44°09' E 028°26'2 4.6
2017-Nov-10 06:30N 44°11' E 028°24'2 4.4
2017-Nov-10 06:00N 44°13' E 028°23'2 4.4
2017-Nov-10 05:30N 44°15' E 028°21'2 3.7
2017-Nov-10 05:00N 44°15' E 028°18'0 0.0
2017-Nov-10 04:30N 44°15' E 028°18'0 0.0
2017-Nov-10 04:00N 44°15' E 028°18'0 0.0
2017-Nov-10 03:30N 44°15' E 028°18'0 0.0
2017-Nov-10 03:00N 44°15' E 028°18'0 0.0
2017-Nov-10 02:30N 44°15' E 028°18'0 0.0
2017-Nov-10 02:00N 44°15' E 028°18'0 0.0
2017-Nov-10 01:30N 44°15' E 028°18'0 0.0
2017-Nov-10 01:00N 44°15' E 028°18'0 0.0
2017-Nov-10 00:30N 44°15' E 028°18'0 0.0
2017-Nov-10 00:00N 44°15' E 028°18'0 0.0
2017-Nov-09 23:30N 44°15' E 028°18'0 0.0
2017-Nov-09 23:00N 44°15' E 028°18'0 0.0
2017-Nov-09 22:30N 44°15' E 028°18'0 0.0
2017-Nov-09 22:00N 44°15' E 028°18'0 0.0
2017-Nov-09 21:30N 44°15' E 028°18'0 0.0
2017-Nov-09 21:00N 44°15' E 028°18'0 0.0
2017-Nov-09 20:30N 44°15' E 028°18'0 0.0
2017-Nov-09 20:00N 44°15' E 028°18'0 0.0
2017-Nov-09 19:30N 44°15' E 028°18'0 0.0
2017-Nov-09 19:00N 44°15' E 028°18'0 0.0
2017-Nov-09 18:30N 44°15' E 028°18'0 0.0
2017-Nov-09 18:00N 44°15' E 028°18'0 0.0
2017-Nov-09 17:30N 44°15' E 028°18'0 0.1
2017-Nov-09 17:00N 44°15' E 028°18'1 2.9
2017-Nov-09 16:30N 44°15' E 028°16'2 4.4
2017-Nov-09 16:00N 44°15' E 028°13'2 4.3
2017-Nov-09 15:30N 44°16' E 028°10'2 4.4
2017-Nov-09 15:00N 44°16' E 028°07'2 4.4
2017-Nov-09 14:30N 44°17' E 028°04'  
2017-Nov-06 21:59N 43°51' E 023°24'3 5.7
2017-Nov-06 21:29N 43°51' E 023°20'3 5.7
2017-Nov-06 21:00N 43°51' E 023°16'3 5.3
2017-Nov-06 20:30N 43°50' E 023°12'17 0.6
2017-Nov-05 14:40N 43°59' E 022°53'0 2.3
2017-Nov-05 14:30N 43°58' E 022°53'0 0.8
2017-Nov-05 14:00N 43°59' E 022°53'3 6.6
2017-Nov-05 13:30N 44°00' E 022°57'3 6.5
2017-Nov-05 13:00N 44°01' E 023°01'3 6.8
2017-Nov-05 12:30N 44°04' E 023°03'3 6.6
2017-Nov-05 12:00N 44°06' E 022°59'3 6.9
2017-Nov-05 11:30N 44°07' E 022°54'3 6.9
2017-Nov-05 11:00N 44°09' E 022°50'3 6.7
2017-Nov-05 10:30N 44°11' E 022°46'3 6.7
2017-Nov-05 10:00N 44°12' E 022°42'3 5.6
2017-Nov-05 09:31N 44°15' E 022°41'3 5.9
2017-Nov-05 09:01N 44°17' E 022°39'1 2.3
2017-Nov-05 08:31N 44°18' E 022°37'0 0.0
2017-Nov-05 08:01N 44°18' E 022°37'0 0.0
2017-Nov-05 07:31N 44°18' E 022°37'0 0.0
2017-Nov-05 07:00N 44°18' E 022°37'0 0.1
2017-Nov-05 06:30N 44°18' E 022°37'0 0.0
2017-Nov-05 06:01N 44°18' E 022°37'0 0.0
2017-Nov-05 05:31N 44°18' E 022°37'0 0.0
2017-Nov-05 05:01N 44°18' E 022°37'0 0.0
2017-Nov-05 04:31N 44°18' E 022°37'0 0.0
2017-Nov-05 04:01N 44°18' E 022°37'0 0.0
2017-Nov-05 03:31N 44°18' E 022°37'0 0.0
2017-Nov-05 03:01N 44°18' E 022°37'0 0.0
2017-Nov-05 02:31N 44°18' E 022°37'0 0.0
2017-Nov-05 02:01N 44°18' E 022°37'0 0.0
2017-Nov-05 01:31N 44°18' E 022°37'0 0.0
2017-Nov-05 01:01N 44°18' E 022°37'0 0.0
2017-Nov-05 00:31N 44°18' E 022°37'0 0.0
2017-Nov-05 00:01N 44°18' E 022°37'0 0.0
2017-Nov-04 23:31N 44°18' E 022°37'0 0.0
2017-Nov-04 23:01N 44°18' E 022°37'0 0.0
2017-Nov-04 22:31N 44°18' E 022°37'0 0.0
2017-Nov-04 22:01N 44°18' E 022°37'0 0.0
2017-Nov-04 21:31N 44°18' E 022°37'0 0.8
2017-Nov-04 21:00N 44°17' E 022°37'0 0.0
2017-Nov-04 20:31N 44°17' E 022°37'0 0.0
2017-Nov-04 20:01N 44°17' E 022°37'0 0.0
2017-Nov-04 19:31N 44°17' E 022°37'0 0.0
2017-Nov-04 19:01N 44°17' E 022°37'0 0.0
2017-Nov-04 18:31N 44°17' E 022°37'0 0.0
2017-Nov-04 18:01N 44°17' E 022°37'0 0.0
2017-Nov-04 17:31N 44°17' E 022°37'1 1.0
2017-Nov-04 17:01N 44°17' E 022°38'  

Dump ship's entire track history